PST,Max TemperatureF,Mean TemperatureF,Min TemperatureF,Max Dew PointF,MeanDew PointF,Min DewpointF,Max Humidity, Mean Humidity, Min Humidity, Max Sea Level PressureIn, Mean Sea Level PressureIn, Min Sea Level PressureIn, Max VisibilityMiles, Mean VisibilityMiles, Min VisibilityMiles, Max Wind SpeedMPH, Mean Wind SpeedMPH, Max Gust SpeedMPH,PrecipitationIn, CloudCover, Events, WindDirDegrees
2012-11-1,50,48,46,48,47,46,100,98,93,29.96,29.89,29.83,15,5,0,2,0,,0.00,8,Fog-Rain,350
2012-11-2,50,47,44,48,47,45,100,97,87,30.16,30.14,30.09,15,7,2,0,0,,0.00,8,Fog-Rain,-1
2012-11-3,50,48,46,48,47,46,100,95,87,30.10,30.08,30.06,15,9,0,7,2,,0.00,8,Fog-Rain,151
2012-11-4,50,48,46,48,48,46,100,97,94,30.34,30.32,30.27,15,9,3,0,0,,0.00,8,Rain,-1
2012-11-5,60,55,46,52,45,37,94,70,45,30.25,30.21,30.13,15,15,15,6,4,,0.00,6,,9
2012-11-6,46,44,41,43,41,39,100,89,81,30.21,30.10,29.96,15,15,15,2,0,,0.00,8,Rain,320
2012-11-7,51,46,41,43,31,19,100,59,28,30.03,29.97,29.90,15,15,12,12,6,17,0.00,3,Rain,237
2012-11-8,52,41,30,50,34,28,98,77,57,30.02,29.85,29.57,15,15,15,16,9,17,0.51,7,,27
2012-11-9,50,42,37,47,27,18,96,63,42,29.94,29.86,29.55,15,15,15,20,5,,0.01,7,,8
2012-11-10,45,38,30,32,21,16,80,59,44,30.45,30.13,30.05,15,15,15,15,5,,0.00,6,,136
2012-11-11,50,38,26,47,24,16,92,71,53,30.55,30.41,30.33,15,14,12,12,5,,0.00,7,,151
2012-11-12,60,45,30,53,34,27,93,89,72,30.52,30.34,30.29,12,5,1,14,4,,0.00,8,Snow,-1
2012-11-13,61,47,33,56,37,30,93,90,77,30.32,30.28,30.20,15,7,2,20,6,,0.01,8,Snow,136
2012-11-14,44,40,37,42,36,32,93,87,76,30.38,30.30,30.21,15,10,3,14,10,,0.16,6,Rain,165
2012-11-15,49,42,36,37,32,30,87,74,53,30.38,30.28,30.18,15,15,12,12,4,,0.00,7,,183
2012-11-16,46,42,37,38,34,32,93,81,59,30.32,30.08,30.01,15,14,10,8,2,,0.00,8,Rain,-1
2012-11-17,42,36,31,37,34,23,93,85,43,30.63,29.99,29.67,10,8,4,13,2,,0.00,8,Rain,-1
2012-11-18,44,35,26,36,32,23,87,72,33,30.67,30.08,29.81,15,14,6,12,6,17,0.00,8,Rain,184
2012-11-19,48,38,27,34,31,26,93,87,47,30.57,29.94,29.68,6,3,2,5,1,,0.00,7,Rain-Snow,-1
2012-11-20,50,39,28,43,39,28,93,85,34,30.18,29.82,29.64,15,5,1,8,2,,0.00,8,Rain,105
2012-11-21,48,42,36,39,36,30,95,81,38,30.23,29.85,29.65,15,8,0,12,5,,0.00,7,Fog-Rain,155
2012-11-22,52,42,33,38,31,27,94,75,46,30.52,30.40,30.12,15,15,15,12,4,,0.00,5,,149
2012-11-23,52,42,32,46,32,30,97,91,53,30.38,30.18,29.68,2,1,1,7,1,,0.00,8,Rain-Snow,-1
2012-11-24,53,44,35,45,36,29,97,86,60,30.21,29.99,29.32,10,5,1,15,2,,0.02,7,,170
2012-11-25,38,34,31,30,27,20,87,68,39,30.34,30.11,29.44,15,14,10,22,7,,0.02,3,,175
2012-11-26,41,36,30,27,23,5,93,67,32,30.42,30.26,29.82,15,15,15,15,5,,0.00,4,,355
2012-11-27,36,30,23,27,24,21,93,77,46,30.36,30.31,30.19,15,15,15,5,1,,0.00,7,,-1
2012-11-28,37,34,26,28,25,18,87,71,37,30.15,30.04,29.85,15,15,15,12,4,,0.00,5,,336
2012-11-29,42,32,25,34,31,24,93,82,46,30.07,29.91,29.75,15,4,2,21,4,,0.08,8,Rain,120
2012-11-30,41,32,20,39,31,12,93,81,44,30.56,29.83,29.59,10,5,3,20,5,,0.00,8,Rain,100